Time;durP1;ratioP1;P1;durP2;ratioP2;P2;SDS_P1;SDS_P2;PMS_P1;PMS_P2;Temp;Humidity;BMP_temperature;BMP_pressure;BME280_temperature;BME280_humidity;BME280_pressure;Samples;Min_cycle;Max_cycle;Signal;HPM_P1;HPM_P2
2022/11/21 00:00:53;;;;;;;1.50;1.40;;;8.10;99.90;;;;;;5059501;28;20182;-63
2022/11/21 00:03:19;;;;;;;2.07;1.60;;;8.20;99.90;;;;;;5057583;28;20189;-63
2022/11/21 00:05:47;;;;;;;2.00;1.27;;;8.20;99.90;;;;;;5058161;28;20186;-62
2022/11/21 00:08:15;;;;;;;1.80;1.70;;;8.20;99.90;;;;;;5053762;28;20190;-62
2022/11/21 00:10:41;;;;;;;1.97;1.70;;;8.10;99.90;;;;;;5061027;28;20212;-63
2022/11/21 00:13:12;;;;;;;6.77;3.07;;;8.00;99.90;;;;;;5057735;28;20220;-63
2022/11/21 00:15:38;;;;;;;4.00;1.80;;;8.10;99.90;;;;;;5060968;28;20180;-64
2022/11/21 00:18:04;;;;;;;7.53;1.93;;;8.00;99.90;;;;;;5065292;28;20192;-64
2022/11/21 00:20:30;;;;;;;3.43;2.23;;;7.90;99.90;;;;;;5072120;28;20185;-64
2022/11/21 00:22:56;;;;;;;4.13;2.10;;;7.90;99.90;;;;;;5064126;28;20193;-64
2022/11/21 00:25:22;;;;;;;2.80;2.53;;;7.90;99.90;;;;;;5059882;28;20308;-63
2022/11/21 00:27:47;;;;;;;4.07;2.63;;;8.00;99.90;;;;;;5057938;28;20592;-63
2022/11/21 00:30:13;;;;;;;5.63;2.60;;;8.00;99.90;;;;;;5054117;28;21016;-64
2022/11/21 00:32:39;;;;;;;4.33;2.20;;;7.90;99.90;;;;;;5069945;28;20189;-62
2022/11/21 00:35:05;;;;;;;5.90;2.43;;;7.90;99.90;;;;;;5069911;28;20243;-63
2022/11/21 00:37:32;;;;;;;2.27;1.90;;;8.00;99.90;;;;;;5058290;28;20292;-64
2022/11/21 00:39:58;;;;;;;8.73;2.80;;;8.00;99.90;;;;;;5053554;28;20182;-63
2022/11/21 00:42:23;;;;;;;5.03;2.90;;;8.10;99.90;;;;;;5052935;28;20194;-63
2022/11/21 00:44:49;;;;;;;3.00;2.60;;;8.20;99.90;;;;;;5052359;28;20183;-63
2022/11/21 00:47:15;;;;;;;4.57;2.83;;;8.10;99.90;;;;;;5048865;28;20185;-62
2022/11/21 00:49:40;;;;;;;3.20;2.90;;;8.10;99.90;;;;;;5047939;28;20588;-62
2022/11/21 00:52:06;;;;;;;4.63;3.00;;;8.10;99.90;;;;;;5061477;28;20213;-63
2022/11/21 00:54:32;;;;;;;3.63;2.50;;;8.00;99.90;;;;;;5064978;28;20197;-63
2022/11/21 00:56:57;;;;;;;9.17;3.33;;;8.10;99.90;;;;;;5057593;28;20185;-64
2022/11/21 00:59:23;;;;;;;2.93;2.50;;;8.00;99.90;;;;;;5053440;28;20269;-62
2022/11/21 01:01:49;;;;;;;4.80;3.37;;;8.00;99.90;;;;;;5053159;28;20275;-63
2022/11/21 01:04:14;;;;;;;3.03;2.43;;;8.00;99.90;;;;;;5052818;28;20197;-63
2022/11/21 01:06:40;;;;;;;2.80;2.30;;;8.00;99.90;;;;;;5051378;28;20654;-63
2022/11/21 01:09:06;;;;;;;6.17;2.87;;;8.00;99.90;;;;;;5042733;28;20193;-62
2022/11/21 01:11:32;;;;;;;3.13;2.30;;;8.00;99.90;;;;;;5056619;28;20292;-63
2022/11/21 01:13:58;;;;;;;6.23;3.03;;;7.90;99.90;;;;;;5052660;28;20321;-63
2022/11/21 01:16:26;;;;;;;7.87;2.47;;;7.90;99.90;;;;;;5068636;28;20260;-62
2022/11/21 01:18:52;;;;;;;4.77;2.80;;;8.00;99.90;;;;;;5069033;28;20173;-63
2022/11/21 01:21:27;;;;;;;6.80;2.73;;;7.90;99.90;;;;;;5060409;28;20198;-63
2022/11/21 01:23:53;;;;;;;5.97;2.60;;;7.90;99.90;;;;;;5052495;28;20173;-63
2022/11/21 01:26:21;;;;;;;3.57;2.67;;;7.80;99.90;;;;;;5050891;28;20193;-63
2022/11/21 01:28:47;;;;;;;4.63;2.37;;;7.90;99.90;;;;;;5059405;28;20644;-63
2022/11/21 01:31:26;;;;;;;4.80;2.40;;;7.90;99.90;;;;;;5059987;28;20290;-62
2022/11/21 01:33:53;;;;;;;4.00;2.53;;;7.90;99.90;;;;;;5054143;28;20643;-62
2022/11/21 01:36:23;;;;;;;4.67;2.30;;;8.00;99.90;;;;;;5052461;28;20193;-62
2022/11/21 01:38:51;;;;;;;3.80;2.57;;;7.90;99.90;;;;;;5052306;28;20259;-62
2022/11/21 01:41:23;;;;;;;4.07;2.77;;;7.90;99.90;;;;;;5052862;28;20541;-62
2022/11/21 01:43:50;;;;;;;7.43;2.27;;;7.80;99.90;;;;;;5051991;28;20182;-63
2022/11/21 01:46:17;;;;;;;1.90;1.67;;;7.80;99.90;;;;;;5054774;28;20709;-63
2022/11/21 01:49:00;;;;;;;2.67;2.10;;;7.70;99.90;;;;;;5061895;28;20206;-62
2022/11/21 01:51:29;;;;;;;4.73;2.43;;;7.70;99.90;;;;;;5052079;28;20197;-63
2022/11/21 01:54:22;;;;;;;3.07;2.00;;;7.80;99.90;;;;;;5055847;28;20236;-63
2022/11/21 01:56:56;;;;;;;2.83;2.63;;;7.90;99.90;;;;;;5065204;28;20768;-63
2022/11/21 01:59:44;;;;;;;2.00;1.90;;;7.80;99.90;;;;;;5053025;28;20262;-63
2022/11/21 02:02:12;;;;;;;3.27;1.80;;;7.90;99.90;;;;;;5053496;28;20269;-63
2022/11/21 02:04:40;;;;;;;2.33;2.13;;;8.00;99.90;;;;;;5064849;28;20174;-63
2022/11/21 02:07:07;;;;;;;3.17;1.60;;;8.10;99.90;;;;;;5065759;28;20188;-63
2022/11/21 02:09:38;;;;;;;2.00;1.80;;;8.10;99.90;;;;;;5090597;28;20181;-63
2022/11/21 02:12:32;;;;;;;2.50;2.10;;;8.10;99.90;;;;;;5062953;28;20324;-63
2022/11/21 02:14:58;;;;;;;2.13;1.43;;;8.00;99.90;;;;;;5061724;28;20189;-63
2022/11/21 02:17:27;;;;;;;2.10;1.90;;;8.10;99.90;;;;;;5066571;28;20197;-63
2022/11/21 02:19:57;;;;;;;3.40;1.90;;;8.10;99.90;;;;;;5063208;28;20202;-63
2022/11/21 02:23:00;;;;;;;2.23;1.77;;;8.20;99.90;;;;;;5057701;28;20186;-62
2022/11/21 02:25:37;;;;;;;6.03;2.10;;;8.20;99.90;;;;;;5059906;28;20523;-63
2022/11/21 02:28:05;;;;;;;1.70;1.60;;;8.10;99.90;;;;;;5067407;28;20265;-63
2022/11/21 02:30:34;;;;;;;4.80;2.40;;;8.00;99.90;;;;;;5052237;28;20255;-63
2022/11/21 02:33:00;;;;;;;5.60;1.80;;;8.00;99.90;;;;;;5051756;28;20186;-64
2022/11/21 02:35:26;;;;;;;3.47;2.90;;;8.00;99.90;;;;;;5052044;28;20569;-63
2022/11/21 02:38:27;;;;;;;6.47;2.47;;;8.10;99.90;;;;;;5089939;28;20273;-63
2022/11/21 02:41:02;;;;;;;5.43;2.00;;;8.20;99.90;;;;;;5064447;28;20198;-63
2022/11/21 02:44:01;;;;;;;5.03;1.40;;;8.20;99.90;;;;;;5069503;28;20188;-64
2022/11/21 02:46:27;;;;;;;2.00;1.83;;;8.10;99.90;;;;;;5059816;28;20319;-63
2022/11/21 02:48:56;;;;;;;2.07;1.40;;;8.10;99.90;;;;;;5056068;28;20217;-63
2022/11/21 02:51:21;;;;;;;1.47;1.40;;;8.10;99.90;;;;;;5061996;28;20256;-63
2022/11/21 02:53:47;;;;;;;2.83;2.50;;;8.10;99.90;;;;;;5055775;28;20548;-63
2022/11/21 02:56:13;;;;;;;6.40;1.80;;;8.10;99.90;;;;;;5060371;28;20217;-63
2022/11/21 02:58:38;;;;;;;4.10;2.20;;;8.30;99.90;;;;;;5058872;28;20181;-62
2022/11/21 03:01:04;;;;;;;3.53;1.80;;;8.20;99.90;;;;;;5067304;28;20189;-63
2022/11/21 03:03:30;;;;;;;2.70;1.70;;;8.10;99.90;;;;;;5055145;28;20192;-63
2022/11/21 03:05:56;;;;;;;3.07;1.90;;;8.10;99.90;;;;;;5055755;28;20316;-63
2022/11/21 03:08:21;;;;;;;2.23;1.73;;;8.10;99.90;;;;;;5069462;28;20192;-63
2022/11/21 03:10:47;;;;;;;4.27;2.27;;;8.00;99.90;;;;;;5056683;28;20241;-63
2022/11/21 03:13:12;;;;;;;1.87;1.73;;;8.10;99.90;;;;;;5059915;28;20210;-63
2022/11/21 03:15:38;;;;;;;1.60;1.50;;;8.00;99.90;;;;;;5055450;28;20190;-63
2022/11/21 03:18:04;;;;;;;5.97;1.93;;;8.00;99.90;;;;;;5061221;28;20196;-63
2022/11/21 03:20:31;;;;;;;1.80;1.70;;;8.00;99.90;;;;;;5063545;28;20182;-62
2022/11/21 03:22:57;;;;;;;5.00;2.03;;;8.10;99.90;;;;;;5056372;28;20263;-61
2022/11/21 03:25:23;;;;;;;1.83;1.73;;;8.20;99.90;;;;;;5088458;28;20284;-63
2022/11/21 03:27:53;;;;;;;3.40;1.60;;;8.40;99.90;;;;;;5054485;28;20174;-62
2022/11/21 03:30:24;;;;;;;4.97;1.93;;;8.20;99.90;;;;;;5062841;28;20718;-62
2022/11/21 03:32:50;;;;;;;4.27;2.03;;;8.20;99.90;;;;;;5066821;28;20257;-62
2022/11/21 03:35:15;;;;;;;2.43;2.23;;;8.20;99.90;;;;;;5054562;28;20269;-62
2022/11/21 03:37:41;;;;;;;4.03;1.87;;;8.00;99.90;;;;;;5055211;28;20639;-62
2022/11/21 03:40:07;;;;;;;5.07;1.83;;;8.10;99.90;;;;;;5089491;28;20208;-62
2022/11/21 03:42:33;;;;;;;1.90;1.50;;;8.20;99.90;;;;;;5054840;28;20251;-62
2022/11/21 03:44:59;;;;;;;5.57;2.03;;;8.30;99.90;;;;;;5056504;28;20272;-62
2022/11/21 03:47:26;;;;;;;2.60;1.60;;;8.20;99.90;;;;;;5059785;28;20294;-62
2022/11/21 03:49:52;;;;;;;2.67;2.37;;;8.00;99.90;;;;;;5058014;28;20189;-62
2022/11/21 03:52:17;;;;;;;4.63;2.17;;;7.90;99.90;;;;;;5063607;28;20217;-62
2022/11/21 03:54:43;;;;;;;3.00;2.60;;;7.90;99.90;;;;;;5058035;28;20186;-62
2022/11/21 03:57:09;;;;;;;4.43;2.27;;;7.80;99.90;;;;;;5065006;28;20194;-63
2022/11/21 03:59:34;;;;;;;2.83;1.73;;;7.90;99.90;;;;;;5073689;28;20181;-62
2022/11/21 04:02:00;;;;;;;4.23;2.17;;;7.80;99.90;;;;;;5072803;28;20646;-62
2022/11/21 04:04:26;;;;;;;2.27;2.07;;;7.60;99.90;;;;;;5056183;28;20189;-62
2022/11/21 04:06:51;;;;;;;5.93;2.77;;;7.60;99.90;;;;;;5066500;28;20542;-63
2022/11/21 04:09:17;;;;;;;4.57;2.67;;;7.60;99.90;;;;;;5067915;28;20541;-62
2022/11/21 04:11:42;;;;;;;4.63;2.30;;;7.70;99.90;;;;;;5054012;28;20209;-62
2022/11/21 04:14:08;;;;;;;3.70;2.33;;;7.80;99.90;;;;;;5054341;28;20220;-62
2022/11/21 04:16:34;;;;;;;1.77;1.60;;;7.90;99.90;;;;;;5053430;28;20182;-62
2022/11/21 04:18:59;;;;;;;4.07;2.17;;;7.80;99.90;;;;;;5052834;28;20261;-62
2022/11/21 04:21:25;;;;;;;5.27;2.03;;;7.70;99.90;;;;;;5088982;28;20311;-62
2022/11/21 04:23:51;;;;;;;2.20;2.00;;;7.70;99.90;;;;;;5068405;28;20182;-62
2022/11/21 04:26:16;;;;;;;3.10;2.10;;;7.70;99.90;;;;;;5055299;28;20198;-63
2022/11/21 04:28:42;;;;;;;2.67;1.60;;;7.70;99.90;;;;;;5069423;28;20186;-61
2022/11/21 04:31:08;;;;;;;5.40;2.07;;;7.70;99.90;;;;;;5057259;28;20244;-62
2022/11/21 04:33:34;;;;;;;2.50;2.30;;;7.50;99.90;;;;;;5061054;28;20186;-62
2022/11/21 04:35:59;;;;;;;2.80;2.00;;;7.50;99.90;;;;;;5053843;28;20189;-62
2022/11/21 04:38:25;;;;;;;4.33;1.87;;;7.50;99.90;;;;;;5057249;28;20186;-62
2022/11/21 04:40:51;;;;;;;1.63;1.53;;;7.60;99.90;;;;;;5052685;28;20193;-62
2022/11/21 04:43:16;;;;;;;1.53;1.43;;;7.50;99.90;;;;;;5068720;28;20279;-62
2022/11/21 04:45:43;;;;;;;2.40;1.70;;;7.40;99.90;;;;;;5091549;28;20217;-64
2022/11/21 04:48:10;;;;;;;2.90;2.00;;;7.40;99.90;;;;;;5052844;28;20627;-62
2022/11/21 04:50:35;;;;;;;1.57;1.47;;;7.40;99.90;;;;;;5053328;28;20202;-62
2022/11/21 04:53:01;;;;;;;1.47;1.33;;;7.40;99.90;;;;;;5052101;28;20230;-63
2022/11/21 04:55:30;;;;;;;2.07;1.93;;;7.10;99.90;;;;;;5055491;28;20186;-63
2022/11/21 04:57:56;;;;;;;2.63;2.43;;;7.20;99.90;;;;;;5062372;28;20210;-63
2022/11/21 05:00:21;;;;;;;1.83;1.73;;;7.20;99.90;;;;;;5055202;28;20585;-63
2022/11/21 05:02:47;;;;;;;3.10;1.70;;;7.20;99.90;;;;;;5060173;28;20178;-63
2022/11/21 05:05:13;;;;;;;3.73;1.87;;;7.30;99.90;;;;;;5058576;28;20193;-63
2022/11/21 05:07:38;;;;;;;2.93;1.60;;;7.40;99.90;;;;;;5057422;28;20288;-64
2022/11/21 05:10:05;;;;;;;1.43;1.37;;;7.40;99.90;;;;;;5062415;28;20178;-63
2022/11/21 05:15:15;;;;;;;4.60;2.57;;;7.60;99.90;;;;;;5055364;28;20197;-63
2022/11/21 05:17:41;;;;;;;4.70;1.80;;;7.60;99.90;;;;;;5057661;28;20177;-63
2022/11/21 05:20:07;;;;;;;3.30;1.80;;;7.50;99.90;;;;;;5085213;28;20181;-63
2022/11/21 05:22:33;;;;;;;5.10;1.67;;;7.50;99.90;;;;;;5066423;28;20184;-63
2022/11/21 05:24:59;;;;;;;2.33;2.00;;;7.40;99.90;;;;;;5053716;28;20185;-63
2022/11/21 05:27:24;;;;;;;7.53;2.03;;;7.40;99.90;;;;;;5066819;28;20307;-63
2022/11/21 05:29:50;;;;;;;1.83;1.67;;;7.40;99.90;;;;;;5057482;28;20205;-63
2022/11/21 05:32:16;;;;;;;2.30;1.73;;;7.30;99.90;;;;;;5068396;28;20331;-63
2022/11/21 05:34:41;;;;;;;4.27;1.53;;;7.40;99.90;;;;;;5062275;28;20272;-62
2022/11/21 05:37:07;;;;;;;4.07;2.03;;;7.40;99.90;;;;;;5052766;28;20182;-64
2022/11/21 05:39:32;;;;;;;3.90;2.03;;;7.40;99.90;;;;;;5060320;28;20196;-61
2022/11/21 05:41:58;;;;;;;4.30;2.03;;;7.30;99.90;;;;;;5052201;28;20908;-63
2022/11/21 05:44:24;;;;;;;5.47;1.70;;;7.40;99.90;;;;;;5051831;28;20193;-63
2022/11/21 05:46:49;;;;;;;3.73;2.17;;;7.30;99.90;;;;;;5052274;28;20182;-63
2022/11/21 05:49:15;;;;;;;3.23;2.00;;;7.30;99.90;;;;;;5052983;28;20602;-63
2022/11/21 05:51:40;;;;;;;4.83;1.77;;;7.30;99.90;;;;;;5065296;28;20200;-64
2022/11/21 05:54:06;;;;;;;6.90;1.90;;;7.30;99.90;;;;;;5058291;28;20193;-64
2022/11/21 05:56:32;;;;;;;2.60;2.20;;;7.10;99.90;;;;;;5062091;28;20265;-64
2022/11/21 05:58:58;;;;;;;3.67;1.97;;;7.10;99.90;;;;;;5072521;28;20178;-63
2022/11/21 06:04:09;;;;;;;3.17;2.40;;;6.90;99.90;;;;;;5052335;28;20223;-63
2022/11/21 06:06:36;;;;;;;3.20;2.13;;;7.10;99.90;;;;;;5052757;28;20182;-65
2022/11/21 06:09:02;;;;;;;3.47;2.00;;;7.10;99.90;;;;;;5062855;28;20181;-63
2022/11/21 06:11:27;;;;;;;5.20;2.10;;;6.90;99.90;;;;;;5059182;28;20236;-63
2022/11/21 06:13:53;;;;;;;6.93;2.70;;;6.60;99.90;;;;;;5056094;28;20287;-63
2022/11/21 06:16:20;;;;;;;2.53;1.77;;;6.80;99.90;;;;;;5056343;28;20186;-63
2022/11/21 06:18:48;;;;;;;6.17;2.20;;;6.80;99.90;;;;;;5056525;28;20247;-63
2022/11/21 06:21:13;;;;;;;2.50;2.30;;;6.80;99.90;;;;;;5068897;28;21162;-62
2022/11/21 06:23:39;;;;;;;6.70;2.80;;;6.70;99.90;;;;;;5056097;28;20304;-62
2022/11/21 06:26:08;;;;;;;4.23;2.67;;;6.60;99.90;;;;;;5056966;28;20647;-62
2022/11/21 06:28:39;;;;;;;2.90;1.93;;;6.50;99.90;;;;;;5056035;28;20583;-63
2022/11/21 06:31:11;;;;;;;2.90;1.80;;;6.50;99.90;;;;;;5070545;28;20277;-62
2022/11/21 06:33:37;;;;;;;3.10;2.30;;;6.60;99.90;;;;;;5056278;28;20192;-62
2022/11/21 06:36:05;;;;;;;3.57;2.70;;;6.50;99.90;;;;;;5056177;28;20232;-63
2022/11/21 06:38:31;;;;;;;4.83;2.73;;;6.50;99.90;;;;;;5058108;28;20188;-63
2022/11/21 06:40:57;;;;;;;3.23;1.90;;;6.40;99.90;;;;;;5062988;28;20546;-63
2022/11/21 06:43:22;;;;;;;3.43;2.77;;;6.40;99.90;;;;;;5055514;28;20669;-63
2022/11/21 06:45:48;;;;;;;6.40;2.77;;;6.40;99.90;;;;;;5057917;28;20256;-63
2022/11/21 06:48:14;;;;;;;4.77;3.10;;;6.50;99.90;;;;;;5056745;28;20196;-63
2022/11/21 06:50:39;;;;;;;2.57;2.27;;;6.50;99.90;;;;;;5054185;28;20236;-63
2022/11/21 06:53:05;;;;;;;4.60;2.03;;;6.40;99.90;;;;;;5055551;28;20199;-63
2022/11/21 06:55:31;;;;;;;5.87;3.60;;;6.30;99.90;;;;;;5057412;28;20194;-62
2022/11/21 06:57:58;;;;;;;2.27;2.10;;;6.40;99.90;;;;;;5071492;28;20307;-62
2022/11/21 07:00:26;;;;;;;4.00;2.67;;;6.40;99.90;;;;;;5055291;28;20261;-61
2022/11/21 07:02:53;;;;;;;8.57;2.57;;;6.40;99.90;;;;;;5060732;28;20238;-62
2022/11/21 07:05:19;;;;;;;6.67;2.33;;;6.40;99.90;;;;;;5062367;28;20178;-61
2022/11/21 07:07:45;;;;;;;5.17;2.43;;;6.40;99.90;;;;;;5068936;28;20189;-62
2022/11/21 07:10:10;;;;;;;4.77;2.60;;;6.30;99.90;;;;;;5054590;28;20242;-61
2022/11/21 07:15:20;;;;;;;2.97;1.90;;;6.30;99.90;;;;;;5058113;28;20250;-64
2022/11/21 07:17:46;;;;;;;2.40;2.10;;;6.30;99.90;;;;;;5056979;28;20268;-62
2022/11/21 07:20:12;;;;;;;9.03;2.80;;;6.30;99.90;;;;;;5059542;28;20190;-63
2022/11/21 07:22:38;;;;;;;6.53;2.67;;;6.20;99.90;;;;;;5061647;28;20182;-63
2022/11/21 07:25:04;;;;;;;3.53;2.50;;;6.30;99.90;;;;;;5054153;28;20723;-61
2022/11/21 07:27:30;;;;;;;2.57;1.93;;;6.30;99.90;;;;;;5054459;28;20716;-61
2022/11/21 07:29:57;;;;;;;5.17;2.10;;;6.40;99.90;;;;;;5091535;28;20185;-62
2022/11/21 07:32:26;;;;;;;4.00;2.13;;;6.30;99.90;;;;;;5063648;28;20259;-63
2022/11/21 07:34:52;;;;;;;8.70;2.80;;;6.30;99.90;;;;;;5067479;28;20186;-62
2022/11/21 07:37:18;;;;;;;6.53;3.37;;;6.40;99.90;;;;;;5063352;28;20268;-62
2022/11/21 07:39:44;;;;;;;3.97;3.43;;;6.40;99.90;;;;;;5064254;28;20516;-62
2022/11/21 07:42:09;;;;;;;6.27;2.40;;;6.50;99.90;;;;;;5060449;28;20529;-62
2022/11/21 07:44:35;;;;;;;5.87;2.30;;;6.60;99.90;;;;;;5037027;28;20178;-62
2022/11/21 07:47:01;;;;;;;5.37;2.80;;;6.50;99.90;;;;;;5053902;28;20186;-62
2022/11/21 07:49:27;;;;;;;2.80;2.47;;;6.50;99.90;;;;;;5065820;28;20197;-61
2022/11/21 07:51:52;;;;;;;3.33;3.03;;;6.60;99.90;;;;;;5058903;28;20609;-63
2022/11/21 07:54:18;;;;;;;6.37;3.03;;;6.60;99.90;;;;;;5056733;28;20225;-61
2022/11/21 07:56:44;;;;;;;5.43;3.00;;;6.70;99.90;;;;;;5064440;28;21274;-61
2022/11/21 07:59:09;;;;;;;5.47;3.40;;;6.80;99.90;;;;;;5054068;28;20209;-62
2022/11/21 08:01:35;;;;;;;12.03;3.73;;;6.90;99.90;;;;;;5063876;28;20196;-63
2022/11/21 08:04:01;;;;;;;6.60;2.97;;;6.90;99.90;;;;;;5093606;28;20194;-61
2022/11/21 08:06:26;;;;;;;4.43;3.13;;;6.90;99.90;;;;;;5054252;28;20189;-61
2022/11/21 08:08:53;;;;;;;5.83;3.80;;;7.00;99.90;;;;;;5053530;28;20189;-69
2022/11/21 08:11:19;;;;;;;9.73;3.67;;;6.90;99.90;;;;;;5054439;28;20210;-64
2022/11/21 08:13:45;;;;;;;9.83;3.43;;;6.90;99.90;;;;;;5059288;28;20678;-63
2022/11/21 08:16:10;;;;;;;4.63;3.50;;;6.90;99.90;;;;;;5058588;28;20239;-63
2022/11/21 08:18:36;;;;;;;6.37;4.10;;;7.00;99.90;;;;;;5063233;28;20190;-61
2022/11/21 08:21:03;;;;;;;6.23;4.03;;;7.00;99.90;;;;;;5069569;28;20197;-62
2022/11/21 08:23:30;;;;;;;10.47;4.53;;;7.10;99.90;;;;;;5063525;28;20201;-61
2022/11/21 08:25:56;;;;;;;4.60;3.60;;;7.10;99.90;;;;;;5054283;28;20178;-62
2022/11/21 08:28:21;;;;;;;4.60;3.73;;;7.20;99.90;;;;;;5052570;28;20274;-62
2022/11/21 08:30:47;;;;;;;5.10;4.37;;;7.20;99.90;;;;;;5037880;28;20205;-63
2022/11/21 08:33:13;;;;;;;5.00;3.07;;;7.10;99.90;;;;;;5053214;28;20270;-63
2022/11/21 08:35:39;;;;;;;6.97;3.77;;;7.30;99.90;;;;;;5053497;28;20186;-63
2022/11/21 08:38:05;;;;;;;5.90;3.57;;;7.30;99.90;;;;;;5065809;28;20204;-62
2022/11/21 08:40:31;;;;;;;6.17;3.70;;;7.10;99.90;;;;;;5054147;28;20197;-63
2022/11/21 08:43:01;;;;;;;9.93;4.43;;;7.20;99.90;;;;;;5063251;28;20221;-63
2022/11/21 08:45:28;;;;;;;6.03;3.60;;;7.20;99.90;;;;;;5056289;28;20184;-62
2022/11/21 08:47:54;;;;;;;8.73;3.87;;;7.20;99.90;;;;;;5053555;28;20198;-62
2022/11/21 08:50:21;;;;;;;4.53;3.10;;;7.40;99.90;;;;;;5055593;28;20174;-62
2022/11/21 08:52:47;;;;;;;4.83;3.43;;;7.50;99.90;;;;;;5057198;28;20235;-62
2022/11/21 08:55:13;;;;;;;8.23;3.67;;;7.70;99.90;;;;;;5053248;28;20183;-62
2022/11/21 08:57:40;;;;;;;9.40;4.33;;;7.70;99.90;;;;;;5059700;28;20196;-62
2022/11/21 09:00:08;;;;;;;8.37;3.60;;;7.80;99.90;;;;;;5058515;28;20539;-62
2022/11/21 09:02:34;;;;;;;7.13;3.60;;;7.90;99.90;;;;;;5068453;28;20184;-62
2022/11/21 09:05:00;;;;;;;9.33;3.43;;;8.10;99.90;;;;;;5060867;28;20186;-62
2022/11/21 09:07:26;;;;;;;9.17;4.30;;;8.20;99.90;;;;;;5052297;28;20174;-62
2022/11/21 09:09:52;;;;;;;10.27;4.10;;;8.20;99.90;;;;;;5054972;28;20579;-62
2022/11/21 09:12:18;;;;;;;8.13;3.50;;;8.20;99.90;;;;;;5087733;28;20727;-62
2022/11/21 09:20:11;;;;;;;8.83;3.67;;;8.30;99.90;;;;;;5054652;28;20212;-62
2022/11/21 09:22:37;;;;;;;4.43;3.90;;;8.20;99.90;;;;;;5059980;28;20705;-63
2022/11/21 09:25:03;;;;;;;4.93;3.20;;;8.10;99.90;;;;;;5060710;28;20667;-63
2022/11/21 09:27:30;;;;;;;5.53;3.87;;;8.20;99.90;;;;;;5064792;28;20512;-63
2022/11/21 09:29:55;;;;;;;8.73;4.10;;;8.30;99.90;;;;;;5053822;28;20186;-62
2022/11/21 09:32:21;;;;;;;7.07;3.47;;;8.20;99.90;;;;;;5052860;28;20220;-62
2022/11/21 09:34:47;;;;;;;6.20;2.80;;;8.40;99.90;;;;;;5052556;28;20554;-63
2022/11/21 09:37:13;;;;;;;8.70;3.30;;;8.40;99.90;;;;;;5052133;28;20193;-63
2022/11/21 09:39:39;;;;;;;8.83;3.33;;;8.60;99.90;;;;;;5052308;28;20193;-62
2022/11/21 09:42:26;;;;;;;6.40;3.10;;;8.70;99.90;;;;;;5052984;28;20704;-63
2022/11/21 09:45:16;;;;;;;4.17;2.80;;;8.60;99.90;;;;;;5056213;28;20186;-63
2022/11/21 09:47:46;;;;;;;7.23;2.87;;;8.70;99.90;;;;;;5058121;28;20213;-62
2022/11/21 09:50:11;;;;;;;10.37;2.57;;;8.60;99.90;;;;;;5052559;28;21010;-62
2022/11/21 09:52:43;;;;;;;7.63;2.83;;;8.60;99.90;;;;;;5055964;28;20210;-63
2022/11/21 09:55:30;;;;;;;6.40;2.93;;;8.70;99.90;;;;;;5051356;28;20206;-63
2022/11/21 09:57:59;;;;;;;5.43;2.80;;;8.80;99.90;;;;;;5052200;28;20183;-62
2022/11/21 10:00:25;;;;;;;6.87;2.60;;;8.80;99.90;;;;;;5061325;28;20182;-63
2022/11/21 10:02:51;;;;;;;6.80;2.40;;;9.00;99.90;;;;;;5057405;28;20186;-64
2022/11/21 10:05:35;;;;;;;6.37;2.53;;;8.90;99.90;;;;;;5069987;28;20192;-63
2022/11/21 10:08:12;;;;;;;5.57;2.47;;;8.90;99.90;;;;;;5066778;28;20564;-63
2022/11/21 10:11:06;;;;;;;5.83;2.83;;;9.00;99.90;;;;;;5052697;28;20177;-63
2022/11/21 10:13:43;;;;;;;7.43;2.83;;;9.30;99.90;;;;;;5064002;28;20197;-63
2022/11/21 10:16:36;;;;;;;6.87;3.00;;;9.50;99.90;;;;;;5064201;28;20704;-63
2022/11/21 10:19:27;;;;;;;3.97;2.10;;;9.70;99.90;;;;;;5057532;28;20660;-63
2022/11/21 10:22:20;;;;;;;7.17;2.40;;;9.70;99.90;;;;;;5063651;28;20647;-63
2022/11/21 10:25:09;;;;;;;5.77;2.80;;;9.70;99.90;;;;;;5055906;28;20636;-63
2022/11/21 10:27:45;;;;;;;5.47;2.30;;;9.70;99.90;;;;;;5059931;28;20704;-63
2022/11/21 10:30:17;;;;;;;5.03;2.77;;;9.60;99.90;;;;;;5056663;28;20209;-62
2022/11/21 10:32:54;;;;;;;6.90;3.33;;;9.50;99.90;;;;;;5095668;28;20193;-63
2022/11/21 10:35:23;;;;;;;7.73;4.00;;;9.50;99.90;;;;;;5065769;28;20191;-63
2022/11/21 10:38:00;;;;;;;5.73;3.80;;;9.50;99.90;;;;;;5056291;28;20174;-63
2022/11/21 10:40:38;;;;;;;8.77;4.07;;;9.40;99.90;;;;;;5060243;28;20193;-63
2022/11/21 10:46:10;;;;;;;8.40;3.77;;;9.40;99.90;;;;;;5061459;28;20220;-62
2022/11/21 10:48:36;;;;;;;9.00;3.90;;;9.40;99.90;;;;;;5063842;28;20710;-63
2022/11/21 10:51:16;;;;;;;7.07;3.57;;;9.40;99.90;;;;;;5056052;28;20293;-65
2022/11/21 10:56:27;;;;;;;9.23;4.43;;;9.40;99.90;;;;;;5065386;28;20192;-61
2022/11/21 10:58:56;;;;;;;6.70;4.60;;;9.30;99.90;;;;;;5068966;28;20189;-62
2022/11/21 11:01:25;;;;;;;7.97;5.23;;;9.40;99.90;;;;;;5064871;28;20520;-61
2022/11/21 11:04:08;;;;;;;7.83;4.90;;;9.50;99.90;;;;;;5060582;28;20195;-62
2022/11/21 11:06:35;;;;;;;8.07;5.53;;;9.50;99.90;;;;;;5056060;28;20304;-62
2022/11/21 11:09:02;;;;;;;10.70;6.00;;;9.60;99.90;;;;;;5043274;28;20716;-62
2022/11/21 11:11:28;;;;;;;12.87;5.00;;;9.60;99.90;;;;;;5054197;28;20205;-62
2022/11/21 11:14:03;;;;;;;11.70;4.90;;;9.50;99.90;;;;;;5056001;28;20204;-62
2022/11/21 11:16:32;;;;;;;11.97;6.77;;;9.50;99.90;;;;;;5055008;28;20173;-62
2022/11/21 11:19:12;;;;;;;11.97;6.20;;;9.40;99.90;;;;;;5064461;28;20181;-61
2022/11/21 11:21:38;;;;;;;13.83;7.27;;;9.40;99.90;;;;;;5063516;28;20178;-62
2022/11/21 11:24:12;;;;;;;18.20;7.73;;;9.50;99.90;;;;;;5063087;28;20193;-61
2022/11/21 11:26:47;;;;;;;15.10;7.43;;;9.50;99.90;;;;;;5054663;28;20189;-62
2022/11/21 11:29:22;;;;;;;13.47;6.50;;;9.40;99.90;;;;;;5054608;28;20177;-62
2022/11/21 11:31:50;;;;;;;9.27;5.83;;;9.40;99.90;;;;;;5054445;28;20229;-63
2022/11/21 11:34:17;;;;;;;13.93;6.27;;;9.40;99.90;;;;;;5055087;28;20668;-63
2022/11/21 11:37:02;;;;;;;12.73;5.50;;;9.50;99.90;;;;;;5054372;28;20182;-63
2022/11/21 11:39:37;;;;;;;9.73;5.90;;;9.70;99.90;;;;;;5056122;28;20261;-63
2022/11/21 11:47:58;;;;;;;10.97;5.10;;;9.80;99.90;;;;;;5059452;28;20236;-62
2022/11/21 11:50:35;;;;;;;9.47;4.67;;;9.70;99.90;;;;;;5053809;28;20681;-63
2022/11/21 11:53:06;;;;;;;7.57;4.97;;;9.70;99.90;;;;;;5062411;28;20182;-63
2022/11/21 11:55:40;;;;;;;8.67;4.87;;;9.70;99.90;;;;;;5065837;28;20178;-62
2022/11/21 11:58:22;;;;;;;9.17;4.67;;;9.90;99.90;;;;;;5065411;28;20177;-63
2022/11/21 12:01:29;;;;;;;8.90;4.20;;;10.00;99.90;;;;;;5060761;28;20214;-62
2022/11/21 12:04:00;;;;;;;9.63;3.83;;;10.00;99.90;;;;;;5067838;28;20260;-63
2022/11/21 12:06:39;;;;;;;8.07;4.93;;;9.90;99.90;;;;;;5054476;28;20265;-63
2022/11/21 12:09:23;;;;;;;6.40;4.80;;;10.00;99.90;;;;;;5053205;28;20173;-63
2022/11/21 12:12:05;;;;;;;6.70;4.53;;;10.00;99.90;;;;;;5054644;28;20244;-63
2022/11/21 12:18:06;;;;;;;7.13;5.20;;;10.30;99.90;;;;;;5056107;28;20197;-63
2022/11/21 12:21:07;;;;;;;5.87;3.90;;;10.30;99.90;;;;;;5057286;28;20182;-62
2022/11/21 12:23:39;;;;;;;4.90;3.47;;;10.40;99.90;;;;;;5053861;28;20261;-62
2022/11/21 12:26:21;;;;;;;5.50;4.27;;;10.30;99.90;;;;;;5056334;28;20194;-62
2022/11/21 12:29:23;;;;;;;5.83;4.63;;;10.20;99.90;;;;;;5058220;28;20173;-62
2022/11/21 12:31:48;;;;;;;6.27;4.13;;;10.10;99.90;;;;;;5058876;28;20548;-62
2022/11/21 12:34:30;;;;;;;9.97;4.80;;;10.20;99.90;;;;;;5052719;28;20193;-63
2022/11/21 12:37:18;;;;;;;8.30;4.80;;;10.20;99.90;;;;;;5054876;28;20256;-62
2022/11/21 12:39:59;;;;;;;10.73;4.33;;;10.20;99.90;;;;;;5065824;28;20177;-63
2022/11/21 12:45:28;;;;;;;7.43;3.77;;;10.10;99.90;;;;;;5056581;28;20197;-63
2022/11/21 12:55:14;;;;;;;5.73;4.20;;;10.30;99.90;;;;;;5054334;28;20227;-62
2022/11/21 12:57:45;;;;;;;7.33;4.37;;;10.30;99.90;;;;;;5060423;28;20264;-62
2022/11/21 13:00:26;;;;;;;7.70;3.43;;;10.50;99.90;;;;;;5061758;28;20190;-62
2022/11/21 13:03:25;;;;;;;7.40;4.27;;;10.40;99.90;;;;;;5052891;28;20208;-63
2022/11/21 13:05:53;;;;;;;7.70;4.67;;;10.50;99.90;;;;;;5056581;28;20192;-63
2022/11/21 13:08:27;;;;;;;4.70;4.00;;;10.50;99.90;;;;;;5050453;28;20192;-63
2022/11/21 13:14:06;;;;;;;10.73;3.07;;;10.50;99.90;;;;;;5051013;28;20251;-62
2022/11/21 13:16:35;;;;;;;8.47;4.17;;;10.60;99.90;;;;;;5069400;28;20181;-63
2022/11/21 13:19:18;;;;;;;4.07;3.53;;;10.70;99.90;;;;;;5058158;28;20273;-63
2022/11/21 13:21:47;;;;;;;7.97;4.07;;;10.90;99.90;;;;;;5051843;28;20186;-64
2022/11/21 13:24:44;;;;;;;6.80;3.63;;;10.90;99.90;;;;;;5053085;28;20220;-62
2022/11/21 13:27:33;;;;;;;7.93;3.47;;;10.80;99.90;;;;;;5054883;28;20261;-63
2022/11/21 13:30:07;;;;;;;8.27;3.80;;;10.80;99.90;;;;;;5057779;28;20263;-62
2022/11/21 13:32:43;;;;;;;5.90;3.67;;;10.70;99.90;;;;;;5067914;28;20275;-62
2022/11/21 13:35:18;;;;;;;4.83;2.97;;;10.70;99.90;;;;;;5069863;28;20177;-63
2022/11/21 13:38:07;;;;;;;5.00;3.50;;;10.70;99.90;;;;;;5062952;28;20220;-62
2022/11/21 13:40:33;;;;;;;11.27;3.83;;;10.70;99.90;;;;;;5055778;28;20181;-62
2022/11/21 13:43:08;;;;;;;9.70;4.67;;;10.70;99.90;;;;;;5057740;28;20220;-61
2022/11/21 13:45:52;;;;;;;6.00;5.23;;;10.50;99.90;;;;;;5060019;28;20176;-61
2022/11/21 13:48:30;;;;;;;5.60;3.60;;;10.40;99.90;;;;;;5064828;28;20197;-62
2022/11/21 13:51:18;;;;;;;5.53;2.87;;;10.40;99.90;;;;;;5060705;28;20209;-62